Latest Coastal Weather Observations for Noarlunga

IDS60701

Issued at 11:31 pm CDT Thursday 11 February 2016 (issued every 10 minutes, with the page automatically refreshed every 10 minutes)

About coastal observations | Map of coastal stations | Coastal observations for SA | Marine services | Other Formats
Station Details ID: 023885 Name: NOARLUNGA Lat: -35.16 Lon: 138.51 Height: 55.0 m
Data from the previous 72 hours. | See also: Recent months at Noarlunga
Date/Time
CDT
Temp

°C
Wind Pressure Rain
since 9am
mm
Weather Cloud Vis
km
Sea
Height
m
Swell
Dir
 
Speed
knots
Gust
knots
hPa Trend Height
m
Period
s
Dir
11/11:30pm 17.9 ESE 15 21 - - 0.0 - - - - - - -
11/11:00pm 17.9 ESE 16 22 - - 0.0 - - - - - - -
11/10:30pm 18.1 SE 13 18 - - 0.0 - - - - - - -
11/10:00pm 18.2 SE 12 19 - - 0.0 - - - - - - -
11/09:30pm 18.3 SE 13 20 - - 0.0 - - - - - - -
11/09:00pm 18.5 SE 15 26 - - 0.0 - - - - - - -
11/08:57pm 18.5 SE 15 26 - - 0.0 - - - - - - -
11/08:30pm 19.0 SE 16 23 - - 0.0 - - - - - - -
11/08:00pm 20.0 SE 17 23 - - 0.0 - - - - - - -
11/07:30pm 20.7 SE 18 24 - - 0.0 - - - - - - -
11/07:00pm 22.0 SE 15 23 - - 0.0 - - - - - - -
11/06:30pm 23.0 SE 16 22 - - 0.0 - - - - - - -
11/06:00pm 24.3 SE 14 19 - - 0.0 - - - - - - -
11/05:30pm 25.4 SE 15 19 - - 0.0 - - - - - - -
11/05:00pm 26.3 SE 12 16 - - 0.0 - - - - - - -
11/04:30pm 27.2 SE 12 16 - - 0.0 - - - - - - -
11/04:00pm 27.1 SE 11 15 - - 0.0 - - - - - - -
11/03:30pm 27.7 SE 10 14 - - 0.0 - - - - - - -
11/03:00pm 27.1 SE 11 17 - - 0.0 - - - - - - -
11/02:30pm 27.9 SSE 11 17 - - 0.0 - - - - - - -
11/02:00pm 27.7 SE 10 15 - - 0.0 - - - - - - -
11/01:30pm 27.4 SSE 12 17 - - 0.0 - - - - - - -
11/01:00pm 27.5 SSE 13 17 - - 0.0 - - - - - - -
11/12:30pm 27.4 SE 10 15 - - 0.0 - - - - - - -
11/12:00pm 25.9 SE 10 15 - - 0.0 - - - - - - -
11/11:30am 24.4 SE 13 18 - - 0.0 - - - - - - -
11/11:00am 23.8 ESE 9 14 - - 0.0 - - - - - - -
11/10:30am 22.8 ESE 10 19 - - 0.0 - - - - - - -
11/10:00am 21.6 ESE 11 19 - - 0.0 - - - - - - -
11/09:30am 20.3 SE 14 22 - - 0.0 - - - - - - -
11/09:00am 19.6 SE 12 19 - - 0.0 - - - - - - -
11/08:30am 18.7 ESE 12 19 - - 0.0 - - - - - - -
11/08:00am 18.0 ESE 11 19 - - 0.0 - - - - - - -
11/07:30am 17.3 ESE 10 16 - - 0.0 - - - - - - -
11/07:00am 16.8 SE 8 14 - - 0.0 - - - - - - -
11/06:30am 16.9 SE 11 17 - - 0.0 - - - - - - -
11/06:00am 16.8 SE 8 15 - - 0.0 - - - - - - -
11/05:30am 16.9 SE 10 16 - - 0.0 - - - - - - -
11/05:00am 16.9 SE 10 17 - - 0.0 - - - - - - -
11/04:30am 16.8 SE 7 14 - - 0.0 - - - - - - -
11/04:00am 17.0 SE 10 17 - - 0.0 - - - - - - -
11/03:30am 16.9 SE 10 16 - - 0.0 - - - - - - -
11/03:00am 16.9 SE 10 16 - - 0.0 - - - - - - -
11/02:30am 16.9 SE 9 14 - - 0.0 - - - - - - -
11/02:00am 17.1 SE 9 13 - - 0.0 - - - - - - -
11/01:30am 17.1 SE 9 14 - - 0.0 - - - - - - -
11/01:00am 17.2 SE 12 18 - - 0.0 - - - - - - -
11/12:30am 17.3 SE 10 17 - - 0.0 - - - - - - -
11/12:00am 17.4 SE 11 16 - - 0.0 - - - - - - -
 
Date/Time
CDT
Temp

°C
Wind Pressure Rain
since 9am
mm
Weather Cloud Vis
km
Sea
Height
m
Swell
Dir
 
Speed
knots
Gust
knots
hPa Trend Height
m
Period
s
Dir
10/11:30pm 17.4 SE 11 16 - - 0.0 - - - - - - -
10/11:00pm 17.5 SE 8 13 - - 0.0 - - - - - - -
10/10:30pm 18.1 SE 11 18 - - 0.0 - - - - - - -
10/10:00pm 18.1 SE 14 20 - - 0.0 - - - - - - -
10/09:30pm 18.3 ESE 13 20 - - 0.0 - - - - - - -
10/09:00pm 18.5 ESE 14 21 - - 0.0 - - - - - - -
10/08:30pm 19.4 ESE 12 20 - - 0.0 - - - - - - -
10/08:00pm 20.4 SE 13 18 - - 0.0 - - - - - - -
10/07:30pm 21.5 SE 13 19 - - 0.0 - - - - - - -
10/07:00pm 22.2 SE 13 21 - - 0.0 - - - - - - -
10/06:30pm 23.0 SE 13 20 - - 0.0 - - - - - - -
10/06:00pm 23.5 SE 16 22 - - 0.0 - - - - - - -
10/05:30pm 24.7 SE 14 19 - - 0.0 - - - - - - -
10/05:00pm 26.4 SE 13 18 - - 0.0 - - - - - - -
10/04:30pm 27.5 SE 12 17 - - 0.0 - - - - - - -
10/04:00pm 29.1 SSE 13 17 - - 0.0 - - - - - - -
10/03:30pm 28.9 SSE 13 18 - - 0.0 - - - - - - -
10/03:00pm 29.1 SE 13 18 - - 0.0 - - - - - - -
10/02:30pm 29.3 SSE 16 22 - - 0.0 - - - - - - -
10/02:27pm 29.6 SSE 15 19 - - 0.0 - - - - - - -
10/02:00pm 30.1 S 6 13 - - 0.0 - - - - - - -
10/01:30pm 30.0 SE 10 15 - - 0.0 - - - - - - -
10/01:00pm 29.0 SE 8 13 - - 0.0 - - - - - - -
10/12:30pm 28.7 SE 11 16 - - 0.0 - - - - - - -
10/12:00pm 28.7 SE 9 13 - - 0.0 - - - - - - -
10/11:30am 27.9 SE 10 13 - - 0.0 - - - - - - -
10/11:00am 26.6 SE 10 15 - - 0.0 - - - - - - -
10/10:30am 24.7 ESE 9 13 - - 0.0 - - - - - - -
10/10:00am 23.4 ESE 6 11 - - 0.0 - - - - - - -
10/09:30am 21.4 ESE 8 13 - - 0.0 - - - - - - -
10/09:00am 19.9 ESE 9 17 - - 0.0 - - - - - - -
10/08:30am 19.2 E 10 17 - - 0.0 - - - - - - -
10/08:00am 19.0 ESE 10 17 - - 0.0 - - - - - - -
10/07:30am 19.0 ENE 7 10 - - 0.0 - - - - - - -
10/07:00am 17.9 ENE 9 13 - - 0.0 - - - - - - -
10/06:30am 17.6 ENE 7 10 - - 0.0 - - - - - - -
10/06:00am 18.0 ENE 8 12 - - 0.0 - - - - - - -
10/05:30am 17.5 E 7 11 - - 0.0 - - - - - - -
10/05:00am 17.9 E 8 13 - - 0.0 - - - - - - -
10/04:30am 18.1 E 9 15 - - 0.0 - - - - - - -
10/04:00am 18.5 E 7 12 - - 0.0 - - - - - - -
10/03:30am 18.4 E 11 15 - - 0.0 - - - - - - -
10/03:00am 18.6 E 11 16 - - 0.0 - - - - - - -
10/02:30am 18.6 E 12 18 - - 0.0 - - - - - - -
10/02:00am 18.7 E 13 20 - - 0.0 - - - - - - -
10/01:30am 19.0 E 14 19 - - 0.0 - - - - - - -
10/01:00am 19.0 E 13 19 - - 0.0 - - - - - - -
10/12:30am 18.8 E 13 19 - - 0.0 - - - - - - -
10/12:00am 18.7 ESE 15 20 - - 0.0 - - - - - - -
 
Date/Time
CDT
Temp

°C
Wind Pressure Rain
since 9am
mm
Weather Cloud Vis
km
Sea
Height
m
Swell
Dir
 
Speed
knots
Gust
knots
hPa Trend Height
m
Period
s
Dir
09/11:30pm 19.0 ESE 15 21 - - 0.0 - - - - - - -
09/11:00pm 19.2 ESE 12 19 - - 0.0 - - - - - - -
09/10:30pm 19.6 ESE 13 19 - - 0.0 - - - - - - -
09/10:00pm 20.2 ESE 11 17 - - 0.0 - - - - - - -
09/09:30pm 20.6 ESE 12 19 - - 0.0 - - - - - - -
09/09:00pm 21.4 SE 12 17 - - 0.0 - - - - - - -
09/08:30pm 21.9 SE 12 17 - - 0.0 - - - - - - -
09/08:00pm 23.9 SE 10 13 - - 0.0 - - - - - - -
09/07:30pm 25.1 SE 10 14 - - 0.0 - - - - - - -
09/07:00pm 25.6 SE 12 16 - - 0.0 - - - - - - -
09/06:30pm 26.6 SE 12 17 - - 0.0 - - - - - - -
09/06:00pm 27.6 SE 13 18 - - 0.0 - - - - - - -
09/05:30pm 28.8 SE 13 17 - - 0.0 - - - - - - -
09/05:00pm 30.0 SSE 13 17 - - 0.0 - - - - - - -
09/04:30pm 31.9 SW 6 11 - - 0.0 - - - - - - -
09/04:00pm 29.3 SW 8 12 - - 0.0 - - - - - - -
09/03:30pm 28.9 SW 9 13 - - 0.0 - - - - - - -
09/03:00pm 28.7 WSW 8 11 - - 0.0 - - - - - - -
09/02:30pm 28.4 SW 8 11 - - 0.0 - - - - - - -
09/02:00pm 28.4 SW 7 10 - - 0.0 - - - - - - -
09/01:30pm 28.1 WSW 6 9 - - 0.0 - - - - - - -
09/01:00pm 28.2 W 6 8 - - 0.0 - - - - - - -
09/12:30pm 28.6 NW 3 9 - - 0.0 - - - - - - -
09/12:00pm 30.0 E 4 7 - - 0.0 - - - - - - -
09/11:30am 28.4 E 6 10 - - 0.0 - - - - - - -
09/11:00am 26.9 E 8 10 - - 0.0 - - - - - - -
09/10:30am 24.7 E 9 12 - - 0.0 - - - - - - -
09/10:00am 23.0 ENE 8 11 - - 0.0 - - - - - - -
09/09:30am 21.7 E 6 9 - - 0.0 - - - - - - -
09/09:00am 20.1 ENE 5 9 - - 0.0 - - - - - - -
09/08:30am 18.8 E 8 13 - - 0.0 - - - - - - -
09/08:00am 17.6 ENE 2 7 - - 0.0 - - - - - - -
09/07:30am 16.6 E 7 13 - - 0.0 - - - - - - -
09/07:00am 16.0 ESE 9 14 - - 0.0 - - - - - - -
09/06:30am 16.0 E 7 14 - - 0.0 - - - - - - -
09/06:00am 16.1 ESE 4 10 - - 0.0 - - - - - - -
09/05:30am 16.4 ENE 4 9 - - 0.0 - - - - - - -
09/05:00am 16.6 ESE 11 20 - - 0.0 - - - - - - -
09/04:52am 16.6 ESE 15 26 - - 0.0 - - - - - - -
09/04:30am 16.8 ESE 17 25 - - 0.0 - - - - - - -
09/04:00am 16.7 ESE 15 25 - - 0.0 - - - - - - -
09/03:30am 16.9 ESE 17 24 - - 0.0 - - - - - - -
09/03:00am 17.1 ESE 16 26 - - 0.0 - - - - - - -
09/02:59am 17.1 ESE 15 26 - - 0.0 - - - - - - -
09/02:30am 17.4 ESE 16 22 - - 0.0 - - - - - - -
09/02:00am 17.4 SE 16 22 - - 0.0 - - - - - - -
09/01:30am 17.6 SE 16 24 - - 0.0 - - - - - - -
09/01:00am 17.7 SE 17 24 - - 0.0 - - - - - - -
09/12:30am 17.8 SE 14 21 - - 0.0 - - - - - - -
09/12:00am 17.8 ESE 15 23 - - 0.0 - - - - - - -

Other Formats:

Comma delimited format used in spreadsheet applications
http://www.bom.gov.au/fwo/IDS60701/IDS60701.94808.axf

JavaScript Object Notation format (JSON) in row-major order
http://www.bom.gov.au/fwo/IDS60701/IDS60701.94808.json